createdAt,value
2018-09-11T00:02:10.131Z,16.55
2018-09-11T00:04:38.415Z,16.59
2018-09-11T00:07:06.711Z,16.67
2018-09-11T00:09:35.005Z,16.58
2018-09-11T00:12:03.336Z,16.64
2018-09-11T00:14:31.597Z,16.64
2018-09-11T00:16:59.877Z,16.67
2018-09-11T00:19:28.135Z,16.70
2018-09-11T00:21:56.460Z,16.62
2018-09-11T00:24:24.722Z,16.69
2018-09-11T00:26:53.013Z,16.67
2018-09-11T00:29:21.260Z,16.50
2018-09-11T00:31:49.568Z,16.58
2018-09-11T00:34:17.909Z,16.64
2018-09-11T00:36:46.148Z,16.58
2018-09-11T00:39:14.475Z,16.56
2018-09-11T00:41:42.744Z,16.57
2018-09-11T00:44:11.013Z,16.63
2018-09-11T00:46:39.252Z,16.64
2018-09-11T00:49:07.699Z,16.64
2018-09-11T00:51:35.949Z,16.60
2018-09-11T00:54:04.230Z,16.69
2018-09-11T00:56:32.483Z,16.67
2018-09-11T00:59:00.769Z,16.72
2018-09-11T01:01:29.031Z,16.55
2018-09-11T01:03:57.313Z,16.60
2018-09-11T01:06:25.613Z,16.44
2018-09-11T01:08:53.896Z,16.59
2018-09-11T01:11:22.149Z,16.61
2018-09-11T01:13:50.918Z,16.62
2018-09-11T01:16:19.194Z,16.61
2018-09-11T01:18:47.470Z,16.68
2018-09-11T01:21:15.709Z,16.75
2018-09-11T01:23:43.979Z,16.72
2018-09-11T01:26:12.233Z,16.73
2018-09-11T01:28:40.497Z,16.77
2018-09-11T01:31:08.747Z,16.77
2018-09-11T01:33:37.013Z,16.55
2018-09-11T01:36:05.285Z,16.60
2018-09-11T01:38:33.721Z,16.55
2018-09-11T01:41:01.965Z,16.63
2018-09-11T01:43:30.213Z,16.59
2018-09-11T01:45:58.504Z,16.62
2018-09-11T01:48:26.757Z,16.55
2018-09-11T01:50:55.035Z,16.56
2018-09-11T01:53:23.281Z,16.49
2018-09-11T01:55:52.584Z,16.35
2018-09-11T01:58:21.881Z,16.15
2018-09-11T02:00:50.168Z,16.17
2018-09-11T02:03:18.520Z,16.26
2018-09-11T02:05:46.809Z,16.28
2018-09-11T02:08:15.093Z,16.42
2018-09-11T02:10:43.369Z,16.37
2018-09-11T02:13:11.613Z,16.24
2018-09-11T02:15:39.904Z,16.30
2018-09-11T02:18:08.165Z,16.38
2018-09-11T02:20:36.432Z,16.26
2018-09-11T02:23:04.677Z,16.42
2018-09-11T02:25:32.964Z,16.34
2018-09-11T02:28:01.214Z,16.37
2018-09-11T02:30:29.459Z,16.41
2018-09-11T02:32:57.729Z,16.39
2018-09-11T02:38:43.981Z,16.39
2018-09-11T02:41:12.297Z,16.44
2018-09-11T02:43:40.592Z,16.45
2018-09-11T02:46:08.842Z,16.38
2018-09-11T02:48:37.149Z,16.14
2018-09-11T02:51:05.697Z,16.32
2018-09-11T02:53:33.985Z,16.37
2018-09-11T02:56:02.261Z,16.52
2018-09-11T02:58:30.604Z,16.46
2018-09-11T03:00:58.813Z,16.48
2018-09-11T03:03:27.112Z,16.46
2018-09-11T03:05:55.438Z,16.41
2018-09-11T03:08:23.936Z,16.55
2018-09-11T03:10:52.185Z,16.39
2018-09-11T03:13:20.493Z,16.25
2018-09-11T03:15:48.804Z,16.18
2018-09-11T03:18:17.125Z,15.99
2018-09-11T03:20:45.382Z,16.07
2018-09-11T03:23:13.642Z,16.06
2018-09-11T03:25:41.945Z,16.04
2018-09-11T03:28:10.310Z,16.08
2018-09-11T03:30:38.681Z,16.21
2018-09-11T03:33:07.013Z,16.12
2018-09-11T03:35:35.369Z,16.05
2018-09-11T03:38:04.746Z,16.07
2018-09-11T03:40:33.070Z,16.19
2018-09-11T03:43:01.368Z,16.08
2018-09-11T03:45:29.673Z,16.21
2018-09-11T03:47:58.022Z,16.21
2018-09-11T03:50:26.473Z,16.19
2018-09-11T03:52:54.761Z,16.11
2018-09-11T03:55:23.121Z,15.91
2018-09-11T03:57:51.389Z,16.04
2018-09-11T04:00:19.695Z,15.98
2018-09-11T04:02:47.980Z,15.96
2018-09-11T04:05:16.328Z,16.05
2018-09-11T04:07:44.552Z,15.97
2018-09-11T04:10:12.834Z,15.86
2018-09-11T04:12:41.093Z,15.85
2018-09-11T04:15:09.625Z,15.84
2018-09-11T04:17:40.345Z,15.84
2018-09-11T04:20:08.648Z,15.84
2018-09-11T04:22:38.130Z,15.90
2018-09-11T04:25:06.441Z,15.93
2018-09-11T04:27:34.908Z,15.92
2018-09-11T04:30:03.196Z,15.82
2018-09-11T04:32:31.489Z,15.90
2018-09-11T04:34:59.752Z,15.97
2018-09-11T04:37:28.145Z,15.88
2018-09-11T04:39:56.500Z,15.81
2018-09-11T04:42:26.029Z,15.78
2018-09-11T04:44:54.310Z,15.91
2018-09-11T04:47:22.627Z,15.99
2018-09-11T04:49:50.901Z,15.95
2018-09-11T04:52:19.231Z,15.94
2018-09-11T04:54:49.210Z,15.88
2018-09-11T04:57:17.566Z,15.92
2018-09-11T04:59:45.826Z,15.87
2018-09-11T05:02:14.141Z,15.94
2018-09-11T05:04:42.394Z,15.99
2018-09-11T05:07:10.702Z,16.10
2018-09-11T05:10:42.229Z,16.09
2018-09-11T05:13:10.525Z,16.11
2018-09-11T05:15:38.809Z,16.14
2018-09-11T05:18:07.137Z,16.12
2018-09-11T05:20:35.512Z,16.03
2018-09-11T05:23:03.817Z,16.10
2018-09-11T05:25:32.089Z,15.91
2018-09-11T05:28:00.462Z,16.12
2018-09-11T05:30:28.865Z,16.21
2018-09-11T05:32:57.237Z,16.14
2018-09-11T05:35:25.533Z,16.21
2018-09-11T05:37:54.909Z,16.22
2018-09-11T05:40:23.209Z,16.18
2018-09-11T05:42:51.465Z,16.22
2018-09-11T05:45:19.757Z,16.23
2018-09-11T05:47:48.232Z,16.22
2018-09-11T05:50:16.729Z,16.30
2018-09-11T05:52:45.001Z,16.33
2018-09-11T05:55:13.308Z,16.11
2018-09-11T05:57:41.595Z,16.26
2018-09-11T06:00:10.003Z,16.27
2018-09-11T06:02:38.381Z,16.32
2018-09-11T06:05:06.784Z,16.33
2018-09-11T06:07:36.177Z,16.28
2018-09-11T06:10:04.513Z,16.44
2018-09-11T06:12:33.816Z,16.35
2018-09-11T06:15:02.217Z,16.31
2018-09-11T06:17:30.499Z,16.34
2018-09-11T06:19:58.801Z,16.33
2018-09-11T06:22:27.084Z,16.39
2018-09-11T06:24:55.394Z,16.50
2018-09-11T06:27:23.816Z,16.50
2018-09-11T06:29:52.085Z,16.53
2018-09-11T06:32:20.465Z,16.63
2018-09-11T06:34:48.773Z,16.25
2018-09-11T06:37:17.065Z,16.37
2018-09-11T06:39:45.431Z,16.55
2018-09-11T06:42:13.717Z,16.54
2018-09-11T06:44:42.020Z,16.69
2018-09-11T06:47:10.381Z,16.60
2018-09-11T06:49:38.570Z,16.83
2018-09-11T06:52:07.920Z,16.68
2018-09-11T06:54:36.396Z,16.91
2018-09-11T06:57:04.685Z,16.78
2018-09-11T06:59:32.945Z,16.83
2018-09-11T07:02:01.359Z,17.02
2018-09-11T07:04:30.609Z,17.11
2018-09-11T07:07:00.046Z,16.93
2018-09-11T07:09:28.311Z,17.00
2018-09-11T07:11:56.598Z,17.00
2018-09-11T07:14:24.922Z,16.99
2018-09-11T07:16:53.332Z,17.23
2018-09-11T07:19:21.657Z,16.99
2018-09-11T07:21:50.506Z,17.00
2018-09-11T07:24:18.836Z,16.86
2018-09-11T07:26:47.134Z,17.32
2018-09-11T07:29:15.501Z,17.32
2018-09-11T07:31:43.909Z,17.62
2018-09-11T07:34:12.216Z,17.55
2018-09-11T07:36:40.488Z,17.69
2018-09-11T07:39:09.233Z,17.77
2018-09-11T07:41:37.541Z,17.73
2018-09-11T07:44:05.858Z,17.73
2018-09-11T07:46:34.137Z,17.75
2018-09-11T07:49:02.577Z,17.96
2018-09-11T07:51:30.863Z,18.05
2018-09-11T07:53:59.154Z,18.14
2018-09-11T07:56:27.428Z,17.99
2018-09-11T07:58:55.741Z,18.10
2018-09-11T08:01:24.022Z,18.08
2018-09-11T08:03:52.370Z,17.99
2018-09-11T08:06:20.688Z,18.09
2018-09-11T08:08:49.043Z,17.96
2018-09-11T08:11:17.341Z,18.15
2018-09-11T08:13:45.687Z,18.12
2018-09-11T08:16:14.049Z,18.15
2018-09-11T08:18:42.373Z,17.88
2018-09-11T08:21:10.961Z,17.57
2018-09-11T08:23:39.233Z,17.71
2018-09-11T08:26:07.617Z,17.58
2018-09-11T08:28:35.909Z,17.45
2018-09-11T08:31:04.225Z,17.49
2018-09-11T08:33:32.597Z,17.65
2018-09-11T08:36:00.917Z,17.67
2018-09-11T08:38:29.245Z,18.11
2018-09-11T08:40:57.557Z,18.46
2018-09-11T08:43:25.838Z,18.55
2018-09-11T08:45:54.161Z,18.07
2018-09-11T08:48:22.478Z,17.93
2018-09-11T08:50:50.812Z,17.84
2018-09-11T08:53:19.069Z,17.92
2018-09-11T08:55:47.373Z,18.03
2018-09-11T08:58:15.669Z,17.74
2018-09-11T09:00:45.053Z,17.79
2018-09-11T09:03:13.368Z,17.80
2018-09-11T09:05:41.701Z,18.10
2018-09-11T09:08:10.037Z,18.09
2018-09-11T09:10:38.300Z,18.01
2018-09-11T09:13:06.704Z,18.01
2018-09-11T09:15:35.105Z,17.98
2018-09-11T09:18:04.388Z,17.93
2018-09-11T09:20:32.768Z,18.15
2018-09-11T09:23:01.077Z,18.05
2018-09-11T09:25:29.365Z,18.26
2018-09-11T09:27:57.665Z,18.49
2018-09-11T09:30:26.271Z,18.51
2018-09-11T09:32:54.673Z,18.22
2018-09-11T09:35:23.094Z,17.97
2018-09-11T09:37:52.598Z,18.11
2018-09-11T09:40:20.957Z,18.09
2018-09-11T09:42:49.469Z,17.99
2018-09-11T09:45:17.765Z,18.22
2018-09-11T09:47:48.073Z,18.08
2018-09-11T09:50:16.357Z,17.89
2018-09-11T09:52:44.681Z,17.84
2018-09-11T09:55:12.967Z,17.98
2018-09-11T09:57:44.190Z,17.96
2018-09-11T10:00:12.613Z,17.87
2018-09-11T10:02:42.877Z,17.88
2018-09-11T10:05:11.233Z,17.89
2018-09-11T10:07:39.594Z,18.00
2018-09-11T10:10:07.981Z,17.80
2018-09-11T10:12:36.345Z,17.64
2018-09-11T10:15:04.689Z,17.68
2018-09-11T10:17:32.983Z,17.60
2018-09-11T10:20:01.278Z,17.39
2018-09-11T10:22:29.645Z,17.28
2018-09-11T10:24:58.210Z,17.09
2018-09-11T10:27:26.611Z,17.18
2018-09-11T10:29:54.875Z,17.03
2018-09-11T10:32:23.265Z,17.17
2018-09-11T10:34:51.597Z,17.16
2018-09-11T10:37:19.872Z,17.26
2018-09-11T10:39:51.048Z,17.30
2018-09-11T10:42:19.353Z,17.50
2018-09-11T10:44:47.687Z,17.56
2018-09-11T10:47:15.997Z,17.63
2018-09-11T10:49:44.349Z,17.58
2018-09-11T10:52:12.641Z,17.57
2018-09-11T10:54:42.093Z,17.58
2018-09-11T10:57:11.510Z,17.53
2018-09-11T10:59:39.808Z,17.67
2018-09-11T11:02:08.134Z,17.71
2018-09-11T11:04:36.441Z,17.73
2018-09-11T11:07:04.806Z,17.79
2018-09-11T11:09:33.079Z,17.89
2018-09-11T11:12:01.413Z,17.81
2018-09-11T11:14:29.702Z,17.81
2018-09-11T11:16:58.085Z,17.94
2018-09-11T11:19:26.293Z,17.85
2018-09-11T11:21:54.761Z,17.94
2018-09-11T11:24:23.037Z,17.92
2018-09-11T11:26:51.508Z,17.90
2018-09-11T11:29:19.749Z,17.84
2018-09-11T11:31:48.069Z,17.89
2018-09-11T11:37:49.994Z,17.77
2018-09-11T11:40:18.293Z,17.93
2018-09-11T11:42:46.650Z,18.21
2018-09-11T11:45:14.925Z,18.22
2018-09-11T11:47:43.381Z,18.10
2018-09-11T11:50:11.677Z,18.11
2018-09-11T11:52:40.087Z,18.23
2018-09-11T11:55:08.673Z,18.36
2018-09-11T11:57:36.971Z,18.23
2018-09-11T12:00:05.347Z,18.27
2018-09-11T12:02:33.705Z,18.36
2018-09-11T12:05:01.991Z,18.53
2018-09-11T12:07:30.334Z,18.63
2018-09-11T12:09:58.610Z,18.58
2018-09-11T12:12:27.949Z,18.50
2018-09-11T12:14:56.337Z,18.54
2018-09-11T12:17:24.735Z,18.57
2018-09-11T12:19:53.054Z,18.44
2018-09-11T12:22:22.513Z,18.33
2018-09-11T12:24:50.995Z,18.22
2018-09-11T12:27:19.537Z,18.43
2018-09-11T12:29:48.033Z,18.22
2018-09-11T12:32:16.529Z,18.30
2018-09-11T12:34:44.883Z,18.17
2018-09-11T12:37:14.165Z,18.27
2018-09-11T12:39:42.503Z,18.33
2018-09-11T12:42:11.170Z,18.27
2018-09-11T12:44:39.510Z,18.40
2018-09-11T12:47:08.602Z,18.37
2018-09-11T12:49:36.679Z,18.12
2018-09-11T12:52:04.970Z,18.20
2018-09-11T12:54:33.271Z,17.91
2018-09-11T12:57:01.548Z,18.02
2018-09-11T12:59:29.885Z,17.96
2018-09-11T13:01:58.262Z,18.19
2018-09-11T13:04:27.593Z,18.26
2018-09-11T13:06:55.926Z,18.45
2018-09-11T13:09:24.273Z,18.34
2018-09-11T13:11:52.586Z,18.32
2018-09-11T13:14:21.005Z,18.50
2018-09-11T13:16:53.091Z,18.56
2018-09-11T13:19:21.421Z,18.55
2018-09-11T13:21:49.851Z,18.51
2018-09-11T13:24:18.334Z,18.52
2018-09-11T13:26:46.793Z,18.51
2018-09-11T13:29:15.138Z,18.57
2018-09-11T13:31:43.694Z,18.34
2018-09-11T13:34:11.965Z,18.16
2018-09-11T13:36:40.277Z,18.04
2018-09-11T13:39:09.397Z,18.02
2018-09-11T13:41:37.773Z,17.88
2018-09-11T13:44:07.081Z,17.95
2018-09-11T13:46:36.525Z,17.80
2018-09-11T13:49:04.901Z,17.80
2018-09-11T13:51:33.377Z,17.82
2018-09-11T13:54:01.712Z,17.74
2018-09-11T13:56:30.069Z,17.76
2018-09-11T13:58:58.445Z,17.63
2018-09-11T14:01:27.862Z,17.71
2018-09-11T14:03:56.350Z,17.71
2018-09-11T14:06:24.663Z,17.78
2018-09-11T14:08:56.886Z,17.65
2018-09-11T14:11:25.664Z,17.72
2018-09-11T14:13:55.033Z,17.69
2018-09-11T14:16:23.334Z,17.63
2018-09-11T14:18:51.681Z,17.55
2018-09-11T14:21:20.426Z,17.51
2018-09-11T14:23:48.658Z,17.59
2018-09-11T14:26:16.995Z,17.70
2018-09-11T14:28:45.401Z,17.65
2018-09-11T14:31:13.737Z,17.69
2018-09-11T14:33:42.137Z,17.59
2018-09-11T14:36:10.457Z,17.55
2018-09-11T14:38:38.782Z,17.67
2018-09-11T14:41:07.070Z,17.58
2018-09-11T14:43:35.389Z,17.61
2018-09-11T14:46:03.897Z,17.63
2018-09-11T14:48:32.298Z,17.53
2018-09-11T14:51:00.604Z,17.56
2018-09-11T14:53:29.125Z,17.64
2018-09-11T14:55:57.458Z,17.58
2018-09-11T14:58:25.881Z,17.61
2018-09-11T15:00:54.312Z,17.73
2018-09-11T15:03:22.629Z,17.69
2018-09-11T15:05:51.044Z,17.63
2018-09-11T15:08:19.341Z,17.70
2018-09-11T15:10:47.678Z,17.68
2018-09-11T15:13:16.258Z,17.74
2018-09-11T15:15:44.621Z,17.79
2018-09-11T15:18:14.117Z,17.71
2018-09-11T15:20:42.931Z,17.82
2018-09-11T15:23:11.281Z,17.74
2018-09-11T15:25:39.592Z,17.80
2018-09-11T15:28:07.969Z,17.84
2018-09-11T15:30:36.352Z,17.85
2018-09-11T15:33:04.649Z,17.87
2018-09-11T15:35:32.996Z,17.85
2018-09-11T15:38:01.285Z,17.92
2018-09-11T15:40:29.603Z,17.90
2018-09-11T15:42:57.915Z,17.90
2018-09-11T15:45:26.225Z,17.92
2018-09-11T15:47:55.593Z,17.87
2018-09-11T15:50:23.941Z,17.98
2018-09-11T15:52:52.251Z,18.00
2018-09-11T15:55:20.530Z,18.02
2018-09-11T15:57:48.934Z,18.04
2018-09-11T16:00:17.298Z,18.04
2018-09-11T16:02:45.932Z,17.91
2018-09-11T16:05:15.386Z,17.96
2018-09-11T16:07:43.773Z,17.96
2018-09-11T16:10:13.069Z,17.96
2018-09-11T16:12:41.369Z,17.93
2018-09-11T16:15:09.762Z,17.96
2018-09-11T16:17:38.042Z,17.88
2018-09-11T16:20:06.973Z,17.97
2018-09-11T16:22:35.322Z,18.01
2018-09-11T16:25:03.657Z,17.89
2018-09-11T16:27:31.961Z,17.85
2018-09-11T16:30:00.401Z,17.77
2018-09-11T16:32:28.701Z,17.78
2018-09-11T16:34:57.007Z,17.88
2018-09-11T16:37:25.334Z,17.85
2018-09-11T16:39:54.657Z,17.80
2018-09-11T16:42:23.061Z,17.81
2018-09-11T16:44:51.406Z,17.83
2018-09-11T16:47:19.989Z,17.82
2018-09-11T16:49:48.485Z,17.74
2018-09-11T16:52:16.796Z,17.84
2018-09-11T16:54:45.114Z,17.70
2018-09-11T16:57:13.385Z,17.63
2018-09-11T16:59:41.695Z,17.61
2018-09-11T17:02:10.085Z,17.60
2018-09-11T17:04:38.343Z,17.51
2018-09-11T17:07:06.721Z,17.38
2018-09-11T17:09:35.071Z,17.28
2018-09-11T17:12:03.354Z,17.21
2018-09-11T17:14:31.663Z,17.05
2018-09-11T17:16:59.933Z,16.95
2018-09-11T17:19:28.247Z,17.00
2018-09-11T17:21:56.769Z,17.01
2018-09-11T17:24:25.069Z,17.03
2018-09-11T17:26:53.350Z,16.93
2018-09-11T17:29:21.697Z,16.97
2018-09-11T17:31:49.973Z,17.00
2018-09-11T17:34:18.306Z,16.98
2018-09-11T17:36:46.578Z,16.96
2018-09-11T17:39:14.841Z,16.94
2018-09-11T17:41:43.170Z,16.91
2018-09-11T17:44:11.564Z,16.93
2018-09-11T17:46:39.861Z,16.89
2018-09-11T17:49:08.163Z,16.94
2018-09-11T17:51:36.428Z,16.89
2018-09-11T17:54:05.099Z,16.97
2018-09-11T17:56:33.457Z,17.04
2018-09-11T17:59:01.739Z,17.09
2018-09-11T18:01:30.033Z,17.05
2018-09-11T18:03:58.393Z,17.15
2018-09-11T18:06:26.732Z,17.11
2018-09-11T18:08:55.658Z,17.19
2018-09-11T18:11:23.969Z,17.10
2018-09-11T18:13:52.490Z,17.10
2018-09-11T18:16:20.789Z,17.09
2018-09-11T18:18:49.139Z,17.11
2018-09-11T18:21:18.481Z,17.03
2018-09-11T18:23:46.790Z,17.06
2018-09-11T18:26:15.131Z,17.00
2018-09-11T18:28:43.398Z,16.98
2018-09-11T18:31:11.706Z,17.13
2018-09-11T18:33:40.165Z,17.08
2018-09-11T18:36:08.535Z,16.99
2018-09-11T18:38:37.821Z,16.94
2018-09-11T18:41:07.178Z,16.85
2018-09-11T18:43:35.513Z,16.98
2018-09-11T18:46:04.893Z,16.89
2018-09-11T18:48:33.209Z,16.80
2018-09-11T18:51:01.471Z,16.86
2018-09-11T18:53:29.789Z,16.83
2018-09-11T18:55:58.198Z,16.74
2018-09-11T18:58:26.541Z,16.67
2018-09-11T19:00:54.802Z,16.77
2018-09-11T19:03:23.267Z,16.82
2018-09-11T19:05:51.591Z,16.81
2018-09-11T19:08:19.925Z,16.73
2018-09-11T19:10:48.513Z,16.83
2018-09-11T19:13:16.820Z,16.87
2018-09-11T19:15:46.125Z,16.80
2018-09-11T19:18:14.477Z,16.89
2018-09-11T19:20:42.755Z,16.99
2018-09-11T19:23:11.112Z,16.89
2018-09-11T19:25:39.379Z,16.87
2018-09-11T19:28:08.952Z,16.86
2018-09-11T19:30:37.843Z,16.96
2018-09-11T19:33:06.181Z,16.90
2018-09-11T19:35:34.447Z,16.94
2018-09-11T19:38:03.033Z,16.94
2018-09-11T19:40:31.345Z,16.83
2018-09-11T19:42:59.625Z,16.91
2018-09-11T19:45:27.942Z,16.80
2018-09-11T19:47:56.213Z,16.78
2018-09-11T19:50:25.544Z,16.80
2018-09-11T19:52:53.793Z,16.64
2018-09-11T19:55:22.303Z,16.68
2018-09-11T19:57:50.582Z,16.66
2018-09-11T20:00:18.868Z,16.57
2018-09-11T20:02:47.137Z,16.72
2018-09-11T20:05:16.533Z,16.74
2018-09-11T20:07:44.822Z,16.82
2018-09-11T20:10:13.325Z,16.79
2018-09-11T20:12:41.605Z,16.73
2018-09-11T20:15:10.957Z,16.81
2018-09-11T20:17:39.253Z,16.81
2018-09-11T20:20:07.510Z,16.81
2018-09-11T20:22:36.853Z,16.68
2018-09-11T20:25:05.393Z,16.71
2018-09-11T20:27:33.724Z,16.62
2018-09-11T20:30:01.985Z,16.66
2018-09-11T20:32:30.391Z,16.69
2018-09-11T20:34:58.698Z,16.63
2018-09-11T20:37:27.122Z,16.69
2018-09-11T20:39:55.424Z,16.64
2018-09-11T20:42:23.735Z,16.65
2018-09-11T20:44:52.153Z,16.56
2018-09-11T20:47:20.411Z,16.62
2018-09-11T20:49:48.731Z,16.64
2018-09-11T20:52:17.045Z,16.72
2018-09-11T20:54:45.361Z,16.59
2018-09-11T20:57:13.697Z,16.45
2018-09-11T20:59:42.306Z,16.35
2018-09-11T21:02:10.653Z,16.33
2018-09-11T21:04:38.937Z,16.51
2018-09-11T21:07:07.406Z,16.42
2018-09-11T21:09:35.673Z,16.37
2018-09-11T21:12:05.037Z,16.42
2018-09-11T21:14:33.358Z,16.21
2018-09-11T21:17:01.637Z,16.26
2018-09-11T21:19:29.969Z,16.21
2018-09-11T21:21:58.293Z,16.18
2018-09-11T21:24:26.621Z,16.15
2018-09-11T21:26:54.902Z,16.18
2018-09-11T21:29:23.205Z,16.15
2018-09-11T21:31:51.521Z,16.16
2018-09-11T21:34:19.833Z,16.08
2018-09-11T21:36:48.328Z,16.07
2018-09-11T21:39:16.712Z,16.16
2018-09-11T21:41:45.073Z,16.05
2018-09-11T21:44:13.370Z,16.11
2018-09-11T21:46:41.666Z,16.11
2018-09-11T21:49:09.977Z,16.13
2018-09-11T21:51:38.282Z,16.23
2018-09-11T21:54:06.889Z,16.10
2018-09-11T21:56:35.253Z,16.07
2018-09-11T21:59:03.581Z,16.01
2018-09-11T22:01:37.241Z,15.94
2018-09-11T22:04:05.641Z,15.95
2018-09-11T22:06:33.984Z,15.94
2018-09-11T22:09:02.312Z,15.78
2018-09-11T22:11:30.621Z,15.80
2018-09-11T22:13:58.904Z,15.80
2018-09-11T22:16:27.212Z,15.70
2018-09-11T22:18:55.535Z,15.78
2018-09-11T22:21:23.845Z,15.89
2018-09-11T22:23:52.144Z,15.68
2018-09-11T22:26:20.462Z,15.66
2018-09-11T22:28:48.746Z,15.69
2018-09-11T22:31:17.045Z,15.68
2018-09-11T22:33:45.370Z,15.65
2018-09-11T22:36:13.910Z,15.55
2018-09-11T22:38:42.189Z,15.51
2018-09-11T22:41:10.491Z,15.42
2018-09-11T22:43:38.915Z,15.40
2018-09-11T22:46:07.293Z,15.39
2018-09-11T22:48:35.622Z,15.20
2018-09-11T22:51:03.986Z,15.13
2018-09-11T22:53:32.264Z,15.19
2018-09-11T22:56:00.613Z,15.00
2018-09-11T22:58:28.941Z,14.95
2018-09-11T23:00:57.222Z,14.89
2018-09-11T23:03:25.524Z,14.98
2018-09-11T23:05:53.813Z,14.91
2018-09-11T23:08:22.253Z,14.78
2018-09-11T23:10:50.529Z,14.67
2018-09-11T23:13:18.850Z,14.61
2018-09-11T23:15:47.133Z,14.69
2018-09-11T23:18:15.427Z,14.64
2018-09-11T23:20:43.704Z,14.61
2018-09-11T23:23:12.117Z,14.65
2018-09-11T23:25:40.401Z,14.63
2018-09-11T23:28:08.744Z,14.71
2018-09-11T23:30:37.041Z,14.82
2018-09-11T23:33:05.396Z,14.86
2018-09-11T23:35:33.755Z,14.79
2018-09-11T23:45:01.400Z,14.77
2018-09-11T23:47:29.709Z,14.90
2018-09-11T23:49:58.156Z,14.87
2018-09-11T23:52:26.431Z,14.73
2018-09-11T23:54:54.732Z,14.71
2018-09-11T23:57:23.002Z,14.71
2018-09-11T23:59:51.289Z,14.76
